Time;durP1;ratioP1;P1;durP2;ratioP2;P2;SDS_P1;SDS_P2;PMS_P1;PMS_P2;Temp;Humidity;BMP_temperature;BMP_pressure;BME280_temperature;BME280_humidity;BME280_pressure;Samples;Min_cycle;Max_cycle;Signal;HPM_P1;HPM_P2
2023/09/05 00:01:10;;;;;;;1.58;1.42;;;;;;;20.86;82.75;101945.38;21112594;28;20036;-69
2023/09/05 00:11:12;;;;;;;1.67;1.30;;;;;;;20.84;82.49;101942.78;21102076;28;20127;-70
2023/09/05 00:21:18;;;;;;;1.48;1.38;;;;;;;20.83;82.17;101929.38;21108725;28;20051;-69
2023/09/05 00:31:20;;;;;;;1.33;1.23;;;;;;;20.82;81.96;101931.22;21110699;28;20048;-69
2023/09/05 00:41:22;;;;;;;1.85;1.60;;;;;;;20.80;81.79;101932.34;21101902;28;20128;-69
2023/09/05 00:51:25;;;;;;;1.42;1.33;;;;;;;20.77;81.39;101927.13;21091796;28;20550;-69
2023/09/05 01:01:26;;;;;;;1.60;1.50;;;;;;;20.76;81.32;101926.31;21089221;28;20052;-69
2023/09/05 01:11:28;;;;;;;1.50;1.40;;;;;;;20.73;81.57;101922.00;21103931;28;20052;-69
2023/09/05 01:21:39;;;;;;;1.90;1.70;;;;;;;20.70;79.68;101922.25;21112273;28;20048;-69
2023/09/05 01:31:43;;;;;;;2.10;1.77;;;;;;;20.66;78.74;101912.69;21092454;28;20176;-69
2023/09/05 01:41:45;;;;;;;2.10;1.60;;;;;;;20.64;78.19;101903.00;21079067;28;20040;-69
2023/09/05 01:51:48;;;;;;;2.08;1.48;;;;;;;20.63;79.08;101902.13;21078622;28;20421;-69
2023/09/05 02:01:51;;;;;;;2.40;1.75;;;;;;;20.61;78.33;101893.28;21105091;28;20412;-69
2023/09/05 02:11:53;;;;;;;2.15;1.92;;;;;;;20.58;78.92;101889.00;21098857;28;20062;-69
2023/09/05 02:21:55;;;;;;;2.00;1.80;;;;;;;20.60;78.38;101896.13;21086261;28;20060;-69
2023/09/05 02:31:59;;;;;;;2.20;1.80;;;;;;;20.57;78.24;101898.13;21101911;28;20082;-69
2023/09/05 02:42:03;;;;;;;2.42;1.92;;;;;;;20.56;78.18;101882.00;21088406;28;20147;-69
2023/09/05 02:52:05;;;;;;;2.90;2.20;;;;;;;20.55;77.86;101874.88;21109949;28;20488;-69
2023/09/05 03:02:06;;;;;;;2.75;1.90;;;;;;;20.54;78.44;101871.28;21123715;28;20070;-69
2023/09/05 03:12:08;;;;;;;2.55;1.80;;;;;;;20.55;79.87;101866.75;21096021;28;20052;-69
2023/09/05 03:22:10;;;;;;;1.70;1.60;;;;;;;20.47;80.14;101847.63;21082877;28;20048;-69
2023/09/05 03:32:12;;;;;;;2.22;2.00;;;;;;;20.52;79.94;101856.19;21081451;28;20052;-69
2023/09/05 03:42:15;;;;;;;2.03;1.83;;;;;;;20.51;79.67;101852.63;21101266;28;20058;-69
2023/09/05 03:52:16;;;;;;;1.92;1.73;;;;;;;20.50;79.58;101852.75;21102616;28;20438;-69
2023/09/05 04:02:18;;;;;;;1.88;1.63;;;;;;;20.48;78.93;101847.47;21112220;28;20063;-69
2023/09/05 04:12:20;;;;;;;2.28;1.95;;;;;;;20.47;78.36;101843.06;21110837;28;20035;-69
2023/09/05 04:22:24;;;;;;;2.15;1.88;;;;;;;20.39;78.53;101826.63;21118123;28;20130;-69
2023/09/05 04:32:32;;;;;;;2.10;1.73;;;;;;;20.40;78.13;101822.94;21104139;28;20044;-70
2023/09/05 04:42:35;;;;;;;2.70;1.70;;;;;;;20.39;77.97;101823.91;21090689;28;20043;-69
2023/09/05 04:52:37;;;;;;;2.08;1.75;;;;;;;20.41;78.05;101832.75;21110428;28;20035;-70
2023/09/05 05:02:39;;;;;;;1.67;1.40;;;;;;;20.39;77.33;101846.44;21112737;27;20192;-69
2023/09/05 05:12:41;;;;;;;1.77;1.50;;;;;;;20.37;76.98;101837.59;21075154;28;20508;-69
2023/09/05 05:22:43;;;;;;;1.63;1.52;;;;;;;20.36;76.96;101838.56;21073815;28;20067;-69
2023/09/05 05:32:46;;;;;;;2.38;1.58;;;;;;;20.34;76.53;101828.88;21070902;28;20101;-69
2023/09/05 05:42:48;;;;;;;3.10;1.77;;;;;;;20.31;76.58;101821.84;21073970;28;20384;-69
2023/09/05 05:52:50;;;;;;;1.92;1.50;;;;;;;20.26;76.13;101811.44;21071646;28;20116;-69
2023/09/05 06:02:52;;;;;;;6.95;5.30;;;;;;;20.13;74.03;101818.88;21076952;28;20057;-70
2023/09/05 06:12:53;;;;;;;10.65;5.00;;;;;;;19.45;77.80;101825.28;21106892;28;20135;-71
2023/09/05 06:22:55;;;;;;;6.47;5.63;;;;;;;19.14;82.41;101816.94;21135100;28;20052;-70
2023/09/05 06:32:57;;;;;;;8.52;7.05;;;;;;;19.01;84.74;101832.38;21139048;28;20044;-70
2023/09/05 06:42:59;;;;;;;7.78;6.10;;;;;;;18.99;87.39;101832.50;21082503;28;20176;-71
2023/09/05 06:53:00;;;;;;;7.75;6.35;;;;;;;19.11;87.97;101828.81;21116940;28;20046;-71
2023/09/05 07:03:02;;;;;;;5.13;4.35;;;;;;;19.31;89.30;101837.19;21068394;28;20062;-70
2023/09/05 07:13:04;;;;;;;5.65;3.38;;;;;;;19.68;88.50;101826.09;21036847;28;20079;-70
2023/09/05 07:23:06;;;;;;;3.85;2.60;;;;;;;20.08;87.51;101838.19;21070105;28;20079;-69
2023/09/05 07:33:08;;;;;;;3.70;2.40;;;;;;;20.40;86.57;101845.44;21091716;28;20491;-69
2023/09/05 07:43:10;;;;;;;2.58;2.10;;;;;;;20.66;85.61;101833.38;21100617;28;20510;-70
2023/09/05 07:53:12;;;;;;;2.17;1.90;;;;;;;20.90;85.71;101840.38;21101094;28;20495;-71
2023/09/05 08:03:14;;;;;;;3.10;1.67;;;;;;;21.09;88.54;101847.75;21082352;28;20058;-69
2023/09/05 08:13:16;;;;;;;3.08;1.80;;;;;;;21.24;89.10;101842.84;21082101;28;20055;-70
2023/09/05 08:23:18;;;;;;;2.40;1.77;;;;;;;21.39;89.98;101860.44;21106921;28;20056;-70
2023/09/05 08:33:20;;;;;;;2.65;1.70;;;;;;;21.49;89.22;101855.06;21128072;28;20062;-68
2023/09/05 08:43:22;;;;;;;1.90;1.65;;;;;;;21.57;89.11;101835.41;21090430;28;20048;-68
2023/09/05 08:53:30;;;;;;;2.53;1.73;;;;;;;21.65;89.04;101837.44;21078251;28;20048;-69
2023/09/05 09:03:32;;;;;;;1.63;1.27;;;;;;;21.70;88.69;101840.63;21079745;28;20053;-68
2023/09/05 09:13:34;;;;;;;1.58;1.20;;;;;;;21.76;87.56;101829.22;21087950;28;20058;-68
2023/09/05 09:23:36;;;;;;;1.80;1.50;;;;;;;21.80;87.71;101836.06;21066734;28;20483;-70
2023/09/05 09:33:38;;;;;;;3.05;1.67;;;;;;;21.85;87.15;101832.91;21077219;28;20595;-68
2023/09/05 09:43:40;;;;;;;1.95;1.48;;;;;;;21.88;86.37;101822.66;21114301;28;20115;-68
2023/09/05 09:53:43;;;;;;;2.13;1.55;;;;;;;21.88;86.29;101819.13;21114038;28;20403;-69
2023/09/05 10:03:45;;;;;;;3.20;1.50;;;;;;;21.88;87.48;101802.84;21103757;28;20127;-68
2023/09/05 10:13:48;;;;;;;1.50;1.38;;;;;;;21.88;87.41;101795.56;21109844;28;20052;-68
2023/09/05 10:23:53;;;;;;;1.60;1.33;;;;;;;21.90;87.46;101778.31;21101815;28;20566;-68
2023/09/05 10:33:54;;;;;;;2.10;1.33;;;;;;;21.90;87.68;101776.47;21095314;28;20055;-68
2023/09/05 10:43:56;;;;;;;1.92;1.50;;;;;;;21.89;86.55;101785.59;21080653;28;20454;-68
2023/09/05 10:54:30;;;;;;;1.80;1.20;;;;;;;21.88;85.84;101767.63;21097696;28;20056;-68
2023/09/05 11:04:34;;;;;;;2.58;1.40;;;;;;;21.87;84.20;101760.44;21101361;28;20043;-68
2023/09/05 11:14:37;;;;;;;1.95;1.48;;;;;;;21.81;83.01;101770.03;21117565;28;20425;-68
2023/09/05 11:24:45;;;;;;;2.30;1.23;;;;;;;21.78;82.83;101769.44;21119989;28;20470;-68
2023/09/05 11:34:47;;;;;;;1.73;1.30;;;;;;;21.76;82.93;101763.31;21121191;28;20047;-69
2023/09/05 11:44:50;;;;;;;1.30;1.20;;;;;;;21.74;83.04;101755.34;21097424;28;20067;-68
2023/09/05 11:54:53;;;;;;;1.58;1.02;;;;;;;21.72;83.19;101758.16;21088813;28;20468;-69
2023/09/05 12:04:55;;;;;;;1.33;1.17;;;;;;;21.66;83.13;101739.78;21072419;28;21289;-68
2023/09/05 12:14:59;;;;;;;1.30;1.20;;;;;;;21.71;83.15;101736.66;21105667;28;20055;-68
2023/09/05 12:25:08;;;;;;;4.33;1.83;;;;;;;21.72;83.97;101735.66;21157323;28;20054;-69
2023/09/05 12:35:19;;;;;;;1.80;1.23;;;;;;;21.75;86.55;101729.06;21074451;27;20139;-69
2023/09/05 12:45:21;;;;;;;2.13;1.60;;;;;;;21.79;86.32;101714.22;21026592;28;20073;-69
2023/09/05 12:55:23;;;;;;;1.50;1.17;;;;;;;21.82;87.06;101706.69;21080551;28;20056;-68
2023/09/05 13:05:27;;;;;;;3.15;1.35;;;;;;;21.87;87.87;101700.81;21094868;28;20048;-69
2023/09/05 13:15:29;;;;;;;2.17;1.20;;;;;;;21.91;88.68;101687.84;21096236;28;20124;-70
2023/09/05 13:25:34;;;;;;;2.65;1.00;;;;;;;21.93;88.87;101677.72;21085173;28;20097;-70
2023/09/05 13:35:36;;;;;;;4.28;1.63;;;;;;;21.93;89.17;101672.28;21084569;28;20097;-68
2023/09/05 13:45:38;;;;;;;1.60;1.13;;;;;;;21.95;89.16;101662.16;21076880;28;20669;-66
2023/09/05 13:55:40;;;;;;;2.25;1.17;;;;;;;22.00;89.09;101659.84;21081088;28;20103;-70
2023/09/05 14:05:42;;;;;;;2.03;0.95;;;;;;;22.05;89.33;101652.16;21062176;28;20047;-67
2023/09/05 14:15:46;;;;;;;3.22;1.10;;;;;;;22.08;89.72;101651.84;21083775;28;20051;-66
2023/09/05 14:25:51;;;;;;;1.87;1.30;;;;;;;22.09;89.04;101636.44;21081913;28;20657;-75
2023/09/05 14:35:52;;;;;;;2.38;1.20;;;;;;;22.12;88.62;101628.88;21103972;28;20043;-67
2023/09/05 14:45:54;;;;;;;2.03;1.20;;;;;;;22.12;89.40;101628.03;21095505;28;20094;-68
2023/09/05 14:55:56;;;;;;;6.95;2.60;;;;;;;22.20;91.21;101624.59;21121899;28;20562;-68
2023/09/05 15:05:58;;;;;;;4.10;1.75;;;;;;;22.29;92.01;101626.41;21101029;28;20067;-68
2023/09/05 15:16:00;;;;;;;3.22;1.60;;;;;;;22.34;92.17;101615.97;21116412;28;20048;-68
2023/09/05 15:26:04;;;;;;;3.42;1.40;;;;;;;22.36;92.67;101611.22;21097619;28;20048;-71
2023/09/05 15:36:06;;;;;;;4.10;1.60;;;;;;;22.36;93.45;101629.38;21115815;28;20048;-65
2023/09/05 15:46:08;;;;;;;2.10;1.30;;;;;;;22.34;93.06;101617.84;21079449;28;20052;-67
2023/09/05 15:56:10;;;;;;;3.47;1.50;;;;;;;22.25;92.58;101620.41;21117340;27;20104;-68
2023/09/05 16:06:12;;;;;;;4.88;1.58;;;;;;;22.13;92.07;101608.91;21112545;27;20518;-69
2023/09/05 16:16:17;;;;;;;8.10;2.22;;;;;;;22.02;91.62;101619.91;21097808;28;20062;-68
2023/09/05 16:26:19;;;;;;;4.70;1.65;;;;;;;21.92;91.73;101605.53;21150627;28;20044;-68
2023/09/05 16:36:21;;;;;;;2.15;1.10;;;;;;;21.82;91.67;101610.94;21140963;28;20046;-68
2023/09/05 16:46:24;;;;;;;2.60;1.17;;;;;;;21.76;92.07;101623.25;21135820;28;20076;-68
2023/09/05 16:56:26;;;;;;;4.18;1.35;;;;;;;21.71;92.04;101617.41;21079816;28;20579;-68
2023/09/05 17:06:28;;;;;;;2.92;1.15;;;;;;;21.66;92.17;101606.16;21075703;28;20404;-68
2023/09/05 17:16:31;;;;;;;1.40;1.20;;;;;;;21.61;92.07;101598.41;21075466;28;20475;-68
2023/09/05 17:26:33;;;;;;;2.85;1.40;;;;;;;21.57;92.23;101603.25;21075136;28;20064;-68
2023/09/05 17:36:35;;;;;;;2.20;1.00;;;;;;;21.53;92.46;101603.69;21072598;28;20458;-68
2023/09/05 17:46:36;;;;;;;1.33;1.00;;;;;;;21.50;92.64;101615.66;21073327;28;20036;-68
2023/09/05 17:56:38;;;;;;;1.20;1.08;;;;;;;21.47;92.72;101609.69;21072925;28;20131;-68
2023/09/05 18:06:40;;;;;;;1.60;1.30;;;;;;;21.43;92.89;101609.09;21083631;28;20100;-68
2023/09/05 18:16:42;;;;;;;2.05;1.30;;;;;;;21.41;93.07;101608.41;21138672;28;20109;-68
2023/09/05 18:26:44;;;;;;;1.17;1.08;;;;;;;21.38;93.32;101614.09;21116726;28;20102;-68
2023/09/05 18:36:46;;;;;;;1.20;1.10;;;;;;;21.39;93.98;101605.81;21092920;28;20058;-69
2023/09/05 18:46:48;;;;;;;1.92;1.30;;;;;;;21.40;94.23;101622.94;21132906;28;20044;-69
2023/09/05 18:56:50;;;;;;;2.92;1.08;;;;;;;21.39;94.25;101627.50;21141512;28;20130;-70
2023/09/05 19:06:53;;;;;;;1.83;1.20;;;;;;;21.40;95.34;101644.59;21122982;28;20052;-69
2023/09/05 19:16:55;;;;;;;1.33;1.20;;;;;;;21.40;95.68;101648.16;21124457;28;20515;-70
2023/09/05 19:26:57;;;;;;;2.30;1.40;;;;;;;21.40;96.04;101650.03;21133496;28;20119;-69
2023/09/05 19:36:59;;;;;;;1.73;1.48;;;;;;;21.39;96.32;101640.19;21149710;28;20048;-70
2023/09/05 19:47:01;;;;;;;1.80;1.40;;;;;;;21.38;96.75;101633.91;21127132;28;20047;-69
2023/09/05 19:57:03;;;;;;;2.30;1.55;;;;;;;21.38;97.16;101630.34;21118780;28;20105;-70
2023/09/05 20:07:05;;;;;;;3.08;1.70;;;;;;;21.36;97.03;101632.34;21103826;28;20054;-69
2023/09/05 20:17:07;;;;;;;1.85;1.55;;;;;;;21.34;97.26;101634.34;21145775;28;20051;-70
2023/09/05 20:27:09;;;;;;;2.47;1.63;;;;;;;21.33;97.36;101628.06;21146519;28;20055;-69
2023/09/05 20:37:11;;;;;;;3.03;1.52;;;;;;;21.33;97.34;101632.63;21141775;28;20048;-69
2023/09/05 20:47:13;;;;;;;1.90;1.67;;;;;;;21.32;97.29;101620.09;21109416;28;20052;-69
2023/09/05 20:57:15;;;;;;;2.67;2.00;;;;;;;21.30;97.47;101629.22;21124187;28;20055;-70
2023/09/05 21:07:17;;;;;;;2.63;1.90;;;;;;;21.30;98.45;101633.75;21096419;28;20044;-70
2023/09/05 21:17:18;;;;;;;3.25;2.13;;;;;;;21.29;99.24;101645.59;21145558;28;20059;-69
2023/09/05 21:27:20;;;;;;;2.67;2.00;;;;;;;21.27;99.63;101653.00;21103309;28;20068;-70
2023/09/05 21:37:22;;;;;;;2.95;2.08;;;;;;;21.25;99.79;101655.88;21137604;28;20075;-70
2023/09/05 21:47:24;;;;;;;2.97;2.15;;;;;;;21.23;99.91;101671.41;21083430;28;20471;-70
2023/09/05 21:57:26;;;;;;;2.70;1.75;;;;;;;21.21;100.00;101678.81;21104495;28;20044;-70
2023/09/05 22:07:28;;;;;;;1.95;1.75;;;;;;;21.20;99.90;101671.66;21100406;28;20054;-70
2023/09/05 22:17:30;;;;;;;2.97;1.90;;;;;;;21.19;99.75;101683.47;21122196;28;20108;-70
2023/09/05 22:27:34;;;;;;;3.00;1.90;;;;;;;21.17;99.57;101688.19;21129098;28;20094;-70
2023/09/05 22:37:37;;;;;;;2.58;1.60;;;;;;;21.17;99.35;101685.47;21133601;28;20071;-70
2023/09/05 22:47:44;;;;;;;2.10;1.63;;;;;;;21.10;99.20;101676.19;21126389;28;20044;-70
2023/09/05 22:57:49;;;;;;;1.90;1.60;;;;;;;21.15;98.77;101690.16;21105223;28;20101;-70
2023/09/05 23:07:52;;;;;;;2.20;1.80;;;;;;;21.14;98.68;101689.31;21086541;28;20125;-70
2023/09/05 23:17:53;;;;;;;2.38;1.73;;;;;;;21.13;98.19;101684.03;21109378;28;20765;-70
2023/09/05 23:27:55;;;;;;;1.63;1.52;;;;;;;21.12;98.09;101702.16;21126764;28;20487;-70
2023/09/05 23:37:57;;;;;;;1.88;1.50;;;;;;;21.12;97.72;101709.41;21119839;28;20052;-70
2023/09/05 23:48:00;;;;;;;2.35;1.63;;;;;;;21.08;97.25;101710.66;21117224;28;20082;-69
2023/09/05 23:58:03;;;;;;;2.80;1.83;;;;;;;21.03;97.17;101702.97;21118698;28;20055;-70
